Kezdőlap
METAR-TAF:

METAR-TAF

Repülőterek :

Szatmárnémeti, Románia

földrajzi szélesség: 47-48N, földrajzi hosszúság: 022-53E, magasság: 123 m

Jelenlegi meteorológiai megfigyelések

A jelentés 24 perccel ezelõtt készült, 06:00 UTC
Keleti szél 5 kt
Hőmérséklet 2°C
Páratartalom 93%
Légköri nyomás 1016 hPa
Látótávolság 10 km, vagy több
Borult 2500 lábon

METAR: LRSM 230600Z 08005KT 9999 OVC025 02/01 Q1016 R01/19//95

Idő: 08:24 (06:24 UTC)

Előrejelzés

A jelentés 1 órával és 24 perccel ezelõtt készült, 05:00 UTC
Az előrejelzés 23-én 06 óra UTC és 23-én 15 óra UTC között érvényes
Keleti szél 6 kt
Látótávolság 10 km, vagy több
Szakadozott felhőzet 2500 lábon
23-én 12 óra UTC és 23-én 14 óra UTC között fokozatosan kialakuló
Látótávolság: 5000 m
Szakadozott felhőzet 1500 lábon
Borult 2500 lábon
enyhe esõ, hó, Párásság

TAF: LRSM 230500Z 2306/2315 08006KT 9999 BKN025 BECMG 2312/2314 5000 -RASN BR BKN015 OVC025

Meteorológiai megfigyelések és előrejelzések több, mint 4000 repülőtéren (METAR és TAF jelentéseket).

A térképen piros és sárga pontok jelzik az elérhető meteorológiai állomásokat.

Mozgassa az egeret a pont fölött, hogy megjelenjen az állomás neve.

Azután kattintson az időjárási megfigyelések és előrejelzések megtekintéséhez.

A térkép megváltoztatása: kattintson a fekete keresztel jelölt zöld gombra ráközelítéshez, a vonallal jelölt zöld gombra távolításhoz, vagy a zöld nyilakra a szomszédos térképek eléréséhez.


METAR-TAF: